createdAt,value
2023-03-17T00:02:49.901Z,360
2023-03-17T00:06:52.434Z,360
2023-03-17T00:08:53.601Z,360
2023-03-17T00:12:56.574Z,79
2023-03-17T00:16:59.930Z,88
2023-03-17T00:19:01.799Z,360
2023-03-17T00:23:05.292Z,90
2023-03-17T00:25:07.176Z,360
2023-03-17T00:27:08.511Z,87
2023-03-17T00:29:09.557Z,360
2023-03-17T00:35:14.478Z,69
2023-03-17T00:37:15.767Z,360
2023-03-17T00:39:17.060Z,173
2023-03-17T00:41:18.241Z,116
2023-03-17T00:43:19.823Z,360
2023-03-17T00:45:20.926Z,104
2023-03-17T00:49:23.870Z,103
2023-03-17T00:51:25.453Z,360
2023-03-17T00:53:26.434Z,360
2023-03-17T00:55:28.350Z,125
2023-03-17T00:57:30.000Z,154
2023-03-17T01:01:33.059Z,360
2023-03-17T01:03:34.100Z,360
2023-03-17T01:05:35.655Z,128
2023-03-17T01:07:37.175Z,120
2023-03-17T01:11:40.067Z,142
2023-03-17T01:13:41.298Z,142
2023-03-17T01:17:44.084Z,63
2023-03-17T01:21:46.872Z,67
2023-03-17T01:23:47.922Z,65
2023-03-17T01:26:33.335Z,116
2023-03-17T01:28:34.483Z,115
2023-03-17T01:32:37.702Z,115
2023-03-17T01:34:39.218Z,115
2023-03-17T01:36:40.771Z,115
2023-03-17T01:38:42.117Z,360
2023-03-17T01:42:45.126Z,360
2023-03-17T01:44:46.697Z,360
2023-03-17T01:46:48.385Z,360
2023-03-17T01:48:49.484Z,360
2023-03-17T01:50:51.174Z,360
2023-03-17T01:54:54.190Z,37
2023-03-17T01:56:56.175Z,37
2023-03-17T01:58:57.986Z,37
2023-03-17T02:00:59.720Z,37
2023-03-17T02:05:02.990Z,37
2023-03-17T02:09:05.577Z,116
2023-03-17T02:11:06.687Z,116
2023-03-17T02:13:08.486Z,119
2023-03-17T02:15:09.557Z,118
2023-03-17T02:17:10.836Z,118
2023-03-17T02:19:11.967Z,34
2023-03-17T02:21:13.477Z,34
2023-03-17T02:25:15.802Z,32
2023-03-17T02:27:17.231Z,32
2023-03-17T02:29:18.497Z,32
2023-03-17T02:31:20.265Z,32
2023-03-17T02:33:21.692Z,32
2023-03-17T02:37:24.939Z,32
2023-03-17T02:39:26.069Z,32
2023-03-17T02:41:27.720Z,32
2023-03-17T02:43:28.780Z,32
2023-03-17T02:47:31.637Z,32
2023-03-17T02:49:33.073Z,32
2023-03-17T02:51:34.972Z,32
2023-03-17T02:53:36.874Z,32
2023-03-17T02:57:39.797Z,360
2023-03-17T02:59:41.311Z,31
2023-03-17T03:01:42.478Z,31
2023-03-17T03:03:43.688Z,31
2023-03-17T03:09:48.998Z,31
2023-03-17T03:11:49.990Z,31
2023-03-17T03:13:51.048Z,31
2023-03-17T03:15:52.439Z,31
2023-03-17T03:19:55.212Z,31
2023-03-17T03:21:56.421Z,31
2023-03-17T03:23:57.658Z,31
2023-03-17T03:25:58.916Z,31
2023-03-17T03:30:01.531Z,30
2023-03-17T03:32:02.653Z,30
2023-03-17T03:36:05.899Z,30
2023-03-17T03:40:09.477Z,30
2023-03-17T03:42:11.372Z,30
2023-03-17T03:46:14.519Z,30
2023-03-17T03:50:17.662Z,30
2023-03-17T03:52:18.994Z,30
2023-03-17T03:56:22.119Z,30
2023-03-17T03:58:23.146Z,30
2023-03-17T04:00:24.276Z,30
2023-03-17T04:02:25.552Z,30
2023-03-17T04:08:30.533Z,30
2023-03-17T04:12:34.334Z,30
2023-03-17T04:14:35.932Z,30
2023-03-17T04:18:38.817Z,30
2023-03-17T04:22:41.055Z,30
2023-03-17T04:24:42.467Z,30
2023-03-17T04:28:45.169Z,30
2023-03-17T04:30:46.188Z,30
2023-03-17T04:32:47.546Z,30
2023-03-17T04:34:48.978Z,30
2023-03-17T04:36:50.860Z,360
2023-03-17T04:38:52.008Z,360
2023-03-17T04:40:53.516Z,360
2023-03-17T04:42:55.034Z,360
2023-03-17T04:44:56.524Z,360
2023-03-17T04:46:58.455Z,360
2023-03-17T04:48:59.578Z,360
2023-03-17T04:51:00.745Z,360
2023-03-17T04:53:02.306Z,360
2023-03-17T04:55:03.696Z,360
2023-03-17T04:57:04.760Z,360
2023-03-17T05:01:07.841Z,360
2023-03-17T05:03:20.161Z,360
2023-03-17T05:05:09.964Z,360
2023-03-17T05:07:12.004Z,360
2023-03-17T05:11:14.436Z,360
2023-03-17T05:13:15.894Z,360
2023-03-17T05:15:17.573Z,360
2023-03-17T05:17:19.244Z,360
2023-03-17T05:21:22.411Z,360
2023-03-17T05:23:24.050Z,360
2023-03-17T05:25:25.802Z,360
2023-03-17T05:27:26.930Z,360
2023-03-17T05:33:30.699Z,360
2023-03-17T05:35:32.487Z,360
2023-03-17T05:37:33.794Z,360
2023-03-17T05:39:35.280Z,360
2023-03-17T05:43:37.811Z,360
2023-03-17T05:45:39.400Z,360
2023-03-17T05:47:41.028Z,360
2023-03-17T05:49:42.517Z,360
2023-03-17T05:53:45.161Z,360
2023-03-17T05:55:46.872Z,360
2023-03-17T05:59:50.047Z,360
2023-03-17T06:03:52.585Z,360
2023-03-17T06:05:53.643Z,360
2023-03-17T06:09:56.595Z,360
2023-03-17T06:13:59.105Z,360
2023-03-17T06:16:00.746Z,360
2023-03-17T06:20:03.446Z,360
2023-03-17T06:22:04.630Z,360
2023-03-17T06:24:06.057Z,360
2023-03-17T06:26:07.776Z,360
2023-03-17T06:30:11.595Z,360
2023-03-17T06:32:20.154Z,360
2023-03-17T06:34:14.122Z,360
2023-03-17T06:36:15.521Z,360
2023-03-17T06:38:16.802Z,360
2023-03-17T06:42:19.885Z,360
2023-03-17T06:46:23.607Z,360
2023-03-17T06:48:24.727Z,360
2023-03-17T06:52:26.980Z,360
2023-03-17T06:54:28.859Z,360
2023-03-17T06:56:30.842Z,360
2023-03-17T06:58:32.427Z,360
2023-03-17T07:00:33.796Z,360
2023-03-17T07:02:35.480Z,360
2023-03-17T07:04:37.291Z,360
2023-03-17T07:06:38.851Z,360
2023-03-17T07:08:40.228Z,360
2023-03-17T07:10:41.656Z,360
2023-03-17T07:12:43.104Z,360
2023-03-17T07:14:44.954Z,360
2023-03-17T07:16:46.377Z,360
2023-03-17T07:18:48.150Z,360
2023-03-17T07:20:49.623Z,360
2023-03-17T07:24:52.552Z,360
2023-03-17T07:28:55.954Z,360
2023-03-17T07:30:57.192Z,360
2023-03-17T07:34:59.905Z,360
2023-03-17T07:37:01.713Z,360
2023-03-17T07:39:02.827Z,360
2023-03-17T07:41:04.145Z,360
2023-03-17T07:43:06.338Z,360
2023-03-17T07:45:07.571Z,360
2023-03-17T07:47:09.388Z,360
2023-03-17T07:49:10.712Z,360
2023-03-17T07:51:12.554Z,360
2023-03-17T07:53:13.645Z,360
2023-03-17T07:55:15.372Z,360
2023-03-17T07:57:16.729Z,360
2023-03-17T07:59:17.972Z,360
2023-03-17T08:01:19.578Z,360
2023-03-17T08:03:20.569Z,360
2023-03-17T08:07:23.731Z,360
2023-03-17T08:09:24.604Z,360
2023-03-17T08:12:10.078Z,30
2023-03-17T08:14:11.786Z,360
2023-03-17T08:16:13.429Z,360
2023-03-17T08:18:14.437Z,30
2023-03-17T08:22:16.637Z,30
2023-03-17T08:24:17.784Z,30
2023-03-17T08:26:19.257Z,30
2023-03-17T08:28:20.189Z,30
2023-03-17T08:34:22.954Z,360
2023-03-17T08:36:24.325Z,360
2023-03-17T08:38:25.193Z,30
2023-03-17T08:40:26.675Z,360
2023-03-17T08:42:27.854Z,360
2023-03-17T08:44:29.299Z,360
2023-03-17T08:48:31.806Z,360
2023-03-17T08:50:33.686Z,360
2023-03-17T08:52:34.652Z,360
2023-03-17T08:54:35.590Z,360
2023-03-17T08:56:38.153Z,360
2023-03-17T09:00:41.427Z,360
2023-03-17T09:04:44.740Z,360
2023-03-17T09:07:01.602Z,360
2023-03-17T09:10:49.304Z,360
2023-03-17T09:14:52.356Z,360
2023-03-17T09:16:54.171Z,30
2023-03-17T09:20:56.996Z,30
2023-03-17T09:22:58.343Z,360
2023-03-17T09:25:00.005Z,360
2023-03-17T09:27:01.641Z,30
2023-03-17T09:33:06.145Z,30
2023-03-17T09:37:08.662Z,360
2023-03-17T09:39:10.212Z,360
2023-03-17T09:43:11.965Z,360
2023-03-17T09:45:13.094Z,360
2023-03-17T09:47:14.891Z,360
2023-03-17T09:49:16.186Z,360
2023-03-17T09:53:19.022Z,360
2023-03-17T09:55:20.250Z,195
2023-03-17T09:57:21.743Z,195
2023-03-17T09:59:23.254Z,194
2023-03-17T10:01:24.340Z,194
2023-03-17T10:03:25.475Z,360
2023-03-17T10:05:26.857Z,194
2023-03-17T10:09:30.476Z,194
2023-03-17T10:11:32.199Z,186
2023-03-17T10:13:33.338Z,194
2023-03-17T10:15:35.701Z,194
2023-03-17T10:17:36.955Z,194
2023-03-17T10:19:37.967Z,194
2023-03-17T10:21:39.236Z,194
2023-03-17T10:25:41.524Z,194
2023-03-17T10:27:42.703Z,194
2023-03-17T10:31:46.028Z,194
2023-03-17T10:35:49.061Z,193
2023-03-17T10:37:50.004Z,192
2023-03-17T10:39:51.247Z,192
2023-03-17T10:41:52.854Z,192
2023-03-17T10:45:54.703Z,192
2023-03-17T10:47:55.958Z,192
2023-03-17T10:49:57.432Z,192
2023-03-17T10:51:58.245Z,192
2023-03-17T10:58:02.043Z,128
2023-03-17T11:00:03.527Z,206
2023-03-17T11:02:05.322Z,204
2023-03-17T11:04:06.899Z,146
2023-03-17T11:08:09.054Z,168
2023-03-17T11:10:10.489Z,167
2023-03-17T11:12:11.696Z,152
2023-03-17T11:14:12.700Z,99
2023-03-17T11:18:15.017Z,87
2023-03-17T11:20:16.089Z,83
2023-03-17T11:24:18.388Z,135
2023-03-17T11:28:22.028Z,83
2023-03-17T11:30:23.548Z,83
2023-03-17T11:34:26.328Z,95
2023-03-17T11:38:29.310Z,108
2023-03-17T11:40:30.421Z,108
2023-03-17T11:44:33.265Z,153
2023-03-17T11:46:34.977Z,159
2023-03-17T11:48:35.968Z,64
2023-03-17T11:50:37.437Z,61
2023-03-17T11:56:41.052Z,360
2023-03-17T11:58:42.429Z,360
2023-03-17T12:00:43.956Z,167
2023-03-17T12:02:44.623Z,89
2023-03-17T12:06:47.724Z,196
2023-03-17T12:08:49.024Z,121
2023-03-17T12:10:49.855Z,121
2023-03-17T12:12:51.648Z,360
2023-03-17T12:16:54.579Z,132
2023-03-17T12:18:55.595Z,230
2023-03-17T12:20:56.673Z,164
2023-03-17T12:22:58.457Z,141
2023-03-17T12:24:59.287Z,141
2023-03-17T12:27:00.479Z,141
2023-03-17T12:29:11.348Z,158
2023-03-17T12:31:02.433Z,164
2023-03-17T12:33:03.470Z,163
2023-03-17T12:37:06.605Z,135
2023-03-17T12:39:08.199Z,134
2023-03-17T12:41:09.258Z,243
2023-03-17T12:43:10.322Z,242
2023-03-17T12:45:11.470Z,125
2023-03-17T12:49:13.542Z,124
2023-03-17T12:51:14.779Z,141
2023-03-17T12:53:15.842Z,140
2023-03-17T12:55:17.225Z,141
2023-03-17T12:59:20.420Z,141
2023-03-17T13:01:21.336Z,141
2023-03-17T13:05:24.056Z,77
2023-03-17T13:09:26.892Z,75
2023-03-17T13:11:28.001Z,76
2023-03-17T13:15:31.222Z,118
2023-03-17T13:19:33.878Z,181
2023-03-17T13:21:36.486Z,181
2023-03-17T13:25:38.435Z,181
2023-03-17T13:27:40.071Z,181
2023-03-17T13:29:41.186Z,181
2023-03-17T13:31:42.632Z,360
2023-03-17T13:37:46.368Z,112
2023-03-17T13:39:47.768Z,167
2023-03-17T13:41:48.638Z,166
2023-03-17T13:43:49.481Z,167
2023-03-17T13:47:51.853Z,167
2023-03-17T13:49:53.601Z,167
2023-03-17T13:51:59.747Z,167
2023-03-17T13:53:55.521Z,167
2023-03-17T13:57:57.637Z,167
2023-03-17T13:59:58.809Z,167
2023-03-17T14:01:59.753Z,167
2023-03-17T14:04:01.182Z,167
2023-03-17T14:06:02.620Z,167
2023-03-17T14:08:04.395Z,78
2023-03-17T14:10:05.843Z,94
2023-03-17T14:12:07.371Z,118
2023-03-17T14:14:08.760Z,159
2023-03-17T14:16:09.950Z,115
2023-03-17T14:18:11.403Z,149
2023-03-17T14:20:12.170Z,105
2023-03-17T14:22:13.314Z,116
2023-03-17T14:24:14.180Z,149
2023-03-17T14:26:15.321Z,133
2023-03-17T14:30:18.434Z,82
2023-03-17T14:32:19.366Z,90
2023-03-17T14:34:20.531Z,360
2023-03-17T14:36:21.939Z,360
2023-03-17T14:40:24.466Z,65
2023-03-17T14:42:25.803Z,85
2023-03-17T14:46:28.341Z,141
2023-03-17T14:50:30.050Z,100
2023-03-17T14:52:31.728Z,91
2023-03-17T14:54:33.002Z,71
2023-03-17T14:56:34.525Z,73
2023-03-17T14:57:18.262Z,69
2023-03-17T14:59:19.408Z,78
2023-03-17T15:01:20.337Z,104
2023-03-17T15:03:21.251Z,65
2023-03-17T15:05:22.467Z,81
2023-03-17T15:07:23.405Z,84
2023-03-17T15:09:24.669Z,48
2023-03-17T15:11:26.258Z,65
2023-03-17T15:13:27.961Z,77
2023-03-17T15:15:29.637Z,85
2023-03-17T15:17:31.453Z,82
2023-03-17T15:19:33.020Z,44
2023-03-17T15:23:36.523Z,97
2023-03-17T15:25:38.273Z,107
2023-03-17T15:27:47.478Z,107
2023-03-17T15:29:41.220Z,66
2023-03-17T15:33:44.356Z,74
2023-03-17T15:35:46.178Z,87
2023-03-17T15:37:47.910Z,51
2023-03-17T15:39:49.566Z,51
2023-03-17T15:41:50.985Z,69
2023-03-17T15:43:52.676Z,78
2023-03-17T15:45:54.461Z,78
2023-03-17T15:47:55.854Z,81
2023-03-17T15:49:57.344Z,60
2023-03-17T15:54:00.186Z,78
2023-03-17T15:56:01.223Z,78
2023-03-17T15:58:02.269Z,91
2023-03-17T16:00:03.371Z,91
2023-03-17T16:02:04.720Z,72
2023-03-17T16:06:07.189Z,89
2023-03-17T16:08:08.396Z,91
2023-03-17T16:12:11.742Z,48
2023-03-17T16:16:15.001Z,98
2023-03-17T16:18:16.270Z,98
2023-03-17T16:20:17.945Z,89
2023-03-17T16:22:19.603Z,88
2023-03-17T16:24:20.741Z,88
2023-03-17T16:26:22.024Z,77
2023-03-17T16:28:23.447Z,101
2023-03-17T16:30:25.284Z,75
2023-03-17T16:32:26.878Z,76
2023-03-17T16:34:27.891Z,72
2023-03-17T16:36:29.570Z,97
2023-03-17T16:38:30.891Z,67
2023-03-17T16:40:32.096Z,79
2023-03-17T16:42:33.179Z,88
2023-03-17T16:44:34.200Z,88
2023-03-17T16:48:36.275Z,96
2023-03-17T16:50:37.224Z,94
2023-03-17T16:52:38.669Z,94
2023-03-17T16:54:40.460Z,96
2023-03-17T16:58:42.868Z,102
2023-03-17T17:00:44.460Z,43
2023-03-17T17:02:47.427Z,84
2023-03-17T17:04:47.600Z,86
2023-03-17T17:08:50.773Z,84
2023-03-17T17:10:52.202Z,84
2023-03-17T17:12:53.240Z,66
2023-03-17T17:14:54.747Z,100
2023-03-17T17:20:58.981Z,99
2023-03-17T17:23:00.400Z,98
2023-03-17T17:25:01.598Z,88
2023-03-17T17:27:02.849Z,71
2023-03-17T17:29:04.255Z,103
2023-03-17T17:31:05.200Z,104
2023-03-17T17:35:07.582Z,114
2023-03-17T17:37:08.588Z,50
2023-03-17T17:39:09.936Z,102
2023-03-17T17:41:11.079Z,102
2023-03-17T17:43:12.126Z,54
2023-03-17T17:47:14.269Z,90
2023-03-17T17:49:15.326Z,94
2023-03-17T17:51:16.938Z,98
2023-03-17T17:53:17.853Z,85
2023-03-17T17:57:20.704Z,88
2023-03-17T17:59:22.429Z,87
2023-03-17T18:01:23.966Z,96
2023-03-17T18:03:25.575Z,360
2023-03-17T18:05:26.530Z,360
2023-03-17T18:07:27.746Z,360
2023-03-17T18:09:30.875Z,360
2023-03-17T18:11:30.037Z,93
2023-03-17T18:13:31.220Z,119
2023-03-17T18:15:33.023Z,70
2023-03-17T18:17:34.295Z,100
2023-03-17T18:19:35.769Z,97
2023-03-17T18:21:36.919Z,92
2023-03-17T18:23:38.496Z,94
2023-03-17T18:25:40.122Z,89
2023-03-17T18:29:42.562Z,89
2023-03-17T18:31:44.479Z,89
2023-03-17T18:33:46.009Z,88
2023-03-17T18:35:47.566Z,167
2023-03-17T18:40:05.793Z,167
2023-03-17T18:41:51.420Z,167
2023-03-17T18:43:52.969Z,167
2023-03-17T18:45:54.177Z,167
2023-03-17T18:49:56.467Z,249
2023-03-17T18:51:58.322Z,249
2023-03-17T18:56:01.316Z,249
2023-03-17T18:58:02.524Z,249
2023-03-17T19:02:05.262Z,249
2023-03-17T19:04:07.060Z,68
2023-03-17T19:06:08.151Z,68
2023-03-17T19:08:09.363Z,68
2023-03-17T19:10:10.361Z,68
2023-03-17T19:12:11.581Z,306
2023-03-17T19:14:13.273Z,306
2023-03-17T19:18:16.347Z,306
2023-03-17T19:22:19.289Z,306
2023-03-17T19:24:20.777Z,306
2023-03-17T19:28:24.029Z,306
2023-03-17T19:32:26.783Z,306
2023-03-17T19:34:28.128Z,306
2023-03-17T19:36:29.470Z,306
2023-03-17T19:38:30.847Z,306
2023-03-17T19:40:32.974Z,306
2023-03-17T19:42:33.960Z,306
2023-03-17T19:44:35.085Z,306
2023-03-17T19:48:38.331Z,306
2023-03-17T19:50:39.846Z,306
2023-03-17T19:52:41.587Z,306
2023-03-17T19:54:43.206Z,306
2023-03-17T19:56:44.770Z,306
2023-03-17T20:00:47.473Z,306
2023-03-17T20:04:50.231Z,358
2023-03-17T20:06:51.235Z,358
2023-03-17T20:10:54.158Z,358
2023-03-17T20:14:56.973Z,353
2023-03-17T20:16:58.246Z,353
2023-03-17T20:19:00.091Z,353
2023-03-17T20:21:01.779Z,354
2023-03-17T20:23:03.024Z,354
2023-03-17T20:25:04.917Z,354
2023-03-17T20:27:05.843Z,357
2023-03-17T20:29:06.885Z,357
2023-03-17T20:31:08.197Z,357
2023-03-17T20:33:10.080Z,357
2023-03-17T20:35:11.311Z,357
2023-03-17T20:37:12.423Z,357
2023-03-17T20:39:14.167Z,357
2023-03-17T20:43:17.107Z,357
2023-03-17T20:45:18.400Z,357
2023-03-17T20:49:21.804Z,357
2023-03-17T20:53:24.717Z,357
2023-03-17T20:55:26.069Z,357
2023-03-17T20:57:27.884Z,357
2023-03-17T20:59:29.070Z,357
2023-03-17T21:03:31.704Z,357
2023-03-17T21:05:33.533Z,357
2023-03-17T21:07:35.191Z,354
2023-03-17T21:09:37.123Z,345
2023-03-17T21:15:40.652Z,345
2023-03-17T21:17:41.585Z,345
2023-03-17T21:19:43.209Z,345
2023-03-17T21:21:44.993Z,345
2023-03-17T21:25:48.000Z,345
2023-03-17T21:27:49.378Z,345
2023-03-17T21:29:51.219Z,345
2023-03-17T21:31:53.113Z,345
2023-03-17T21:35:55.918Z,345
2023-03-17T21:37:57.749Z,345
2023-03-17T21:39:59.341Z,345
2023-03-17T21:42:01.165Z,345
2023-03-17T21:42:44.978Z,345
2023-03-17T21:44:46.082Z,345
2023-03-17T21:46:47.626Z,345
2023-03-17T21:50:50.944Z,345
2023-03-17T21:52:52.168Z,345
2023-03-17T21:56:54.907Z,345
2023-03-17T21:58:56.270Z,345
2023-03-17T22:00:57.916Z,345
2023-03-17T22:03:01.352Z,345
2023-03-17T22:07:02.160Z,345
2023-03-17T22:09:03.876Z,345
2023-03-17T22:11:05.244Z,345
2023-03-17T22:13:07.137Z,345
2023-03-17T22:15:08.707Z,345
2023-03-17T22:19:11.595Z,345
2023-03-17T22:23:14.569Z,348
2023-03-17T22:25:15.750Z,348
2023-03-17T22:29:18.878Z,348
2023-03-17T22:33:22.067Z,348
2023-03-17T22:35:23.098Z,348
2023-03-17T22:39:26.543Z,348
2023-03-17T22:41:28.497Z,348
2023-03-17T22:43:29.571Z,348
2023-03-17T22:45:30.666Z,348
2023-03-17T22:47:32.088Z,348
2023-03-17T22:49:34.073Z,348
2023-03-17T22:51:35.291Z,348
2023-03-17T22:53:36.420Z,348
2023-03-17T22:55:37.598Z,348
2023-03-17T22:57:39.308Z,348
2023-03-17T23:01:42.542Z,348
2023-03-17T23:03:43.978Z,348
2023-03-17T23:05:45.050Z,348
2023-03-17T23:07:50.884Z,348
2023-03-17T23:11:49.505Z,348
2023-03-17T23:13:50.786Z,348
2023-03-17T23:15:52.669Z,348
2023-03-17T23:17:54.122Z,348
2023-03-17T23:19:55.638Z,348
2023-03-17T23:21:57.216Z,348
2023-03-17T23:23:59.069Z,348
2023-03-17T23:26:00.419Z,348
2023-03-17T23:28:01.769Z,348
2023-03-17T23:30:03.644Z,348
2023-03-17T23:32:04.919Z,348
2023-03-17T23:34:06.160Z,348
2023-03-17T23:36:08.117Z,348
2023-03-17T23:38:09.133Z,348
2023-03-17T23:40:11.021Z,348
2023-03-17T23:44:14.043Z,348
2023-03-17T23:46:15.654Z,348
2023-03-17T23:48:16.618Z,348
2023-03-17T23:50:18.461Z,348
2023-03-17T23:54:21.364Z,348
2023-03-17T23:56:23.023Z,348
2023-03-17T23:58:24.525Z,348
